createdAt,value
2023-05-07T00:02:16.690Z,101994.44
2023-05-07T00:04:43.834Z,101992.70
2023-05-07T00:07:10.847Z,101988.76
2023-05-07T00:09:38.046Z,101990.17
2023-05-07T00:12:05.090Z,101987.83
2023-05-07T00:14:32.134Z,101986.46
2023-05-07T00:16:59.398Z,101986.55
2023-05-07T00:19:26.736Z,101984.69
2023-05-07T00:21:55.141Z,101984.04
2023-05-07T00:24:22.230Z,101984.58
2023-05-07T00:26:49.301Z,101986.23
2023-05-07T00:29:16.257Z,101987.79
2023-05-07T00:31:43.358Z,101980.85
2023-05-07T00:34:10.544Z,101982.48
2023-05-07T00:36:37.517Z,101982.00
2023-05-07T00:39:04.936Z,101978.88
2023-05-07T00:41:32.192Z,101977.14
2023-05-07T00:43:59.726Z,101974.53
2023-05-07T00:46:27.276Z,101973.86
2023-05-07T00:48:54.606Z,101970.90
2023-05-07T00:51:21.583Z,101974.94
2023-05-07T00:53:48.787Z,101974.45
2023-05-07T00:56:15.743Z,101974.68
2023-05-07T00:58:43.083Z,101975.06
2023-05-07T01:01:10.168Z,101975.30
2023-05-07T01:03:37.320Z,101978.52
2023-05-07T01:06:04.877Z,101977.89
2023-05-07T01:08:32.406Z,101981.39
2023-05-07T01:10:59.483Z,101980.14
2023-05-07T01:13:26.622Z,101979.17
2023-05-07T01:15:53.899Z,101979.92
2023-05-07T01:18:21.265Z,101989.08
2023-05-07T01:20:48.541Z,101987.86
2023-05-07T01:23:15.572Z,101985.99
2023-05-07T01:25:42.585Z,101983.60
2023-05-07T01:28:09.866Z,101980.36
2023-05-07T01:30:37.624Z,101978.57
2023-05-07T01:33:10.782Z,101979.77
2023-05-07T01:35:44.186Z,101979.94
2023-05-07T01:38:11.251Z,101981.02
2023-05-07T01:40:38.450Z,101977.23
2023-05-07T01:43:05.458Z,101973.93
2023-05-07T01:45:33.327Z,101973.43
2023-05-07T01:48:00.688Z,101972.25
2023-05-07T01:50:27.846Z,101969.31
2023-05-07T01:52:54.852Z,101970.39
2023-05-07T01:55:22.088Z,101968.86
2023-05-07T01:57:49.138Z,101967.17
2023-05-07T02:00:16.787Z,101966.17
2023-05-07T02:02:43.824Z,101972.15
2023-05-07T02:05:17.276Z,101969.70
2023-05-07T02:07:47.019Z,101970.77
2023-05-07T02:10:14.469Z,101967.13
2023-05-07T02:12:41.515Z,101968.35
2023-05-07T02:15:08.930Z,101971.54
2023-05-07T02:17:36.807Z,101967.02
2023-05-07T02:20:05.018Z,101965.34
2023-05-07T02:22:31.982Z,101961.05
2023-05-07T02:24:58.952Z,101959.71
2023-05-07T02:27:25.887Z,101963.76
2023-05-07T02:29:53.064Z,101965.20
2023-05-07T02:32:20.246Z,101968.71
2023-05-07T02:34:47.195Z,101962.77
2023-05-07T02:37:14.146Z,101966.43
2023-05-07T02:39:41.241Z,101970.20
2023-05-07T02:42:08.253Z,101969.89
2023-05-07T02:44:36.755Z,101967.67
2023-05-07T02:47:05.053Z,101970.36
2023-05-07T02:49:32.563Z,101966.70
2023-05-07T02:51:59.746Z,101971.83
2023-05-07T02:54:26.925Z,101965.07
2023-05-07T02:56:53.945Z,101970.34
2023-05-07T02:59:20.922Z,101972.31
2023-05-07T03:01:48.124Z,101972.91
2023-05-07T03:04:16.814Z,101972.67
2023-05-07T03:06:43.954Z,101977.92
2023-05-07T03:09:10.916Z,101975.05
2023-05-07T03:11:38.003Z,101977.54
2023-05-07T03:14:04.985Z,101980.75
2023-05-07T03:16:32.407Z,101986.91
2023-05-07T03:18:59.513Z,101990.25
2023-05-07T03:21:27.572Z,101993.96
2023-05-07T03:23:54.751Z,101991.04
2023-05-07T03:26:22.455Z,101992.66
2023-05-07T03:28:49.412Z,101998.57
2023-05-07T03:31:17.049Z,102002.22
2023-05-07T03:33:54.428Z,102004.58
2023-05-07T03:36:21.706Z,102003.08
2023-05-07T03:38:49.196Z,102004.70
2023-05-07T03:41:18.509Z,102009.02
2023-05-07T03:43:45.735Z,102014.91
2023-05-07T03:46:12.915Z,102018.73
2023-05-07T03:48:40.132Z,102019.48
2023-05-07T03:51:07.387Z,102024.48
2023-05-07T03:53:34.405Z,102020.60
2023-05-07T03:56:01.405Z,102025.45
2023-05-07T03:58:29.937Z,102018.42
2023-05-07T04:00:58.262Z,102017.20
2023-05-07T04:03:27.214Z,102020.86
2023-05-07T04:05:54.554Z,102022.44
2023-05-07T04:08:21.817Z,102021.56
2023-05-07T04:10:55.993Z,102024.02
2023-05-07T04:13:23.452Z,102025.94
2023-05-07T04:15:52.618Z,102029.42
2023-05-07T04:18:19.866Z,102030.89
2023-05-07T04:20:48.151Z,102028.36
2023-05-07T04:23:15.288Z,102030.77
2023-05-07T04:25:42.731Z,102030.23
2023-05-07T04:28:20.247Z,102033.89
2023-05-07T04:30:47.320Z,102040.89
2023-05-07T04:33:16.037Z,102040.56
2023-05-07T04:35:43.341Z,102045.62
2023-05-07T04:38:10.394Z,102047.18
2023-05-07T04:40:38.186Z,102051.04
2023-05-07T04:43:05.693Z,102052.09
2023-05-07T04:45:34.894Z,102053.67
2023-05-07T04:48:02.094Z,102051.05
2023-05-07T04:50:29.823Z,102054.88
2023-05-07T04:52:58.655Z,102048.91
2023-05-07T04:55:25.776Z,102042.59
2023-05-07T04:57:53.197Z,102046.35
2023-05-07T05:00:21.141Z,102042.08
2023-05-07T05:02:48.719Z,102042.23
2023-05-07T05:05:18.117Z,102045.34
2023-05-07T05:07:45.500Z,102037.79
2023-05-07T05:10:13.031Z,102037.14
2023-05-07T05:12:40.823Z,102032.25
2023-05-07T05:15:08.792Z,102023.90
2023-05-07T05:17:36.972Z,102023.88
2023-05-07T05:20:05.090Z,102022.63
2023-05-07T05:22:32.640Z,102024.48
2023-05-07T05:25:00.073Z,102028.39
2023-05-07T05:27:27.529Z,102025.29
2023-05-07T05:29:54.686Z,102029.64
2023-05-07T05:32:21.755Z,102028.69
2023-05-07T05:34:49.589Z,102026.30
2023-05-07T05:37:16.621Z,102027.91
2023-05-07T05:39:45.311Z,102024.77
2023-05-07T05:42:12.339Z,102025.71
2023-05-07T05:44:39.586Z,102027.02
2023-05-07T05:47:06.681Z,102024.94
2023-05-07T05:49:33.870Z,102024.62
2023-05-07T05:52:01.257Z,102023.88
2023-05-07T05:54:28.320Z,102022.64
2023-05-07T05:56:55.479Z,102023.48
2023-05-07T05:59:22.955Z,102022.69
2023-05-07T06:01:50.273Z,102024.65
2023-05-07T06:04:17.332Z,102023.14
2023-05-07T06:06:44.373Z,102025.45
2023-05-07T06:09:11.670Z,102023.17
2023-05-07T06:11:42.262Z,102019.67
2023-05-07T06:14:09.888Z,102023.63
2023-05-07T06:16:39.254Z,102023.48
2023-05-07T06:19:06.986Z,102024.91
2023-05-07T06:21:34.494Z,102032.45
2023-05-07T06:24:01.539Z,102030.05
2023-05-07T06:26:28.960Z,102027.27
2023-05-07T06:28:56.048Z,102032.91
2023-05-07T06:31:23.865Z,102035.70
2023-05-07T06:33:57.467Z,102042.97
2023-05-07T06:36:30.615Z,102048.09
2023-05-07T06:38:58.729Z,102055.08
2023-05-07T06:41:27.000Z,102055.42
2023-05-07T06:43:55.512Z,102059.77
2023-05-07T06:46:46.446Z,102060.67
2023-05-07T06:49:14.486Z,102060.48
2023-05-07T06:54:04.980Z,102062.70
2023-05-07T06:56:33.421Z,102060.42
2023-05-07T06:59:01.352Z,102060.77
2023-05-07T07:01:31.518Z,102055.74
2023-05-07T07:03:58.929Z,102061.58
2023-05-07T07:06:26.295Z,102063.80
2023-05-07T07:08:53.427Z,102063.71
2023-05-07T07:11:21.396Z,102066.68
2023-05-07T07:13:48.451Z,102061.28
2023-05-07T07:16:15.877Z,102055.61
2023-05-07T07:18:43.574Z,102055.73
2023-05-07T07:21:10.713Z,102051.31
2023-05-07T07:23:37.959Z,102055.02
2023-05-07T07:26:07.264Z,102056.59
2023-05-07T07:28:34.612Z,102059.54
2023-05-07T07:31:01.895Z,102060.21
2023-05-07T07:33:30.756Z,102065.67
2023-05-07T07:35:58.108Z,102067.27
2023-05-07T07:38:25.362Z,102069.73
2023-05-07T07:40:52.409Z,102071.58
2023-05-07T07:43:20.172Z,102069.66
2023-05-07T07:45:47.837Z,102071.88
2023-05-07T07:48:15.253Z,102069.89
2023-05-07T07:50:45.851Z,102071.19
2023-05-07T07:53:15.435Z,102072.59
2023-05-07T07:55:43.188Z,102069.28
2023-05-07T07:58:11.976Z,102070.69
2023-05-07T08:00:39.046Z,102068.98
2023-05-07T08:03:07.999Z,102068.17
2023-05-07T08:05:39.011Z,102065.58
2023-05-07T08:08:06.951Z,102064.39
2023-05-07T08:10:35.416Z,102061.06
2023-05-07T08:13:05.947Z,102058.34
2023-05-07T08:15:34.238Z,102060.58
2023-05-07T08:18:02.772Z,102062.09
2023-05-07T08:20:31.114Z,102062.72
2023-05-07T08:22:58.682Z,102063.85
2023-05-07T08:25:27.216Z,102053.04
2023-05-07T08:27:55.109Z,102054.08
2023-05-07T08:30:22.745Z,102054.41
2023-05-07T08:32:50.635Z,102055.29
2023-05-07T08:35:17.763Z,102052.20
2023-05-07T08:37:45.010Z,102051.16
2023-05-07T08:40:14.458Z,102054.20
2023-05-07T08:42:42.585Z,102052.61
2023-05-07T08:45:11.339Z,102049.18
2023-05-07T08:47:53.489Z,102047.22
2023-05-07T08:50:21.979Z,102042.03
2023-05-07T08:52:50.228Z,102042.88
2023-05-07T08:55:17.677Z,102048.33
2023-05-07T08:57:45.449Z,102048.85
2023-05-07T09:00:14.252Z,102046.77
2023-05-07T09:02:41.723Z,102043.20
2023-05-07T09:05:10.041Z,102041.13
2023-05-07T09:07:37.744Z,102037.31
2023-05-07T09:10:06.736Z,102036.27
2023-05-07T09:12:36.079Z,102036.36
2023-05-07T09:15:04.399Z,102032.02
2023-05-07T09:17:32.497Z,102032.50
2023-05-07T09:20:08.573Z,102032.70
2023-05-07T09:22:37.841Z,102030.64
2023-05-07T09:25:08.531Z,102040.15
2023-05-07T09:27:36.831Z,102034.22
2023-05-07T09:30:24.772Z,102035.92
2023-05-07T09:32:52.295Z,102038.58
2023-05-07T09:35:22.349Z,102036.40
2023-05-07T09:37:53.800Z,102033.08
2023-05-07T09:40:22.617Z,102037.22
2023-05-07T09:42:50.567Z,102037.92
2023-05-07T09:45:30.114Z,102041.02
2023-05-07T09:47:58.894Z,102039.86
2023-05-07T09:50:28.562Z,102038.38
2023-05-07T09:52:56.097Z,102032.70
2023-05-07T09:55:23.831Z,102036.09
2023-05-07T09:57:52.909Z,102037.80
2023-05-07T10:00:21.800Z,102033.24
2023-05-07T10:02:50.420Z,102034.11
2023-05-07T10:05:19.148Z,102030.98
2023-05-07T10:07:46.935Z,102031.49
2023-05-07T10:10:15.924Z,102034.58
2023-05-07T10:12:43.919Z,102035.16
2023-05-07T10:15:15.490Z,102031.97
2023-05-07T10:17:45.408Z,102032.79
2023-05-07T10:20:13.639Z,102029.14
2023-05-07T10:22:44.075Z,102027.99
2023-05-07T10:25:19.625Z,102029.05
2023-05-07T10:27:47.797Z,102025.98
2023-05-07T10:30:39.114Z,102027.73
2023-05-07T10:33:07.808Z,102024.52
2023-05-07T10:35:41.716Z,102027.09
2023-05-07T10:38:09.311Z,102024.73
2023-05-07T10:40:38.055Z,102019.38
2023-05-07T10:43:09.488Z,102018.45
2023-05-07T10:45:42.072Z,102012.44
2023-05-07T10:48:29.592Z,102014.14
2023-05-07T10:51:19.380Z,102013.73
2023-05-07T10:53:46.446Z,102016.98
2023-05-07T10:56:18.189Z,102014.41
2023-05-07T10:58:50.472Z,102012.46
2023-05-07T11:01:59.399Z,102011.33
2023-05-07T11:05:24.307Z,102011.67
2023-05-07T11:08:13.132Z,102007.70
2023-05-07T11:10:58.687Z,102006.02
2023-05-07T11:13:46.856Z,102005.86
2023-05-07T11:16:43.156Z,102004.67
2023-05-07T11:19:49.559Z,102002.46
2023-05-07T11:22:46.837Z,102000.66
2023-05-07T11:25:34.547Z,101997.38
2023-05-07T11:28:31.932Z,101990.42
2023-05-07T11:31:02.857Z,101991.88
2023-05-07T11:33:33.938Z,101993.84
2023-05-07T11:36:03.212Z,101989.99
2023-05-07T11:38:37.501Z,101995.95
2023-05-07T11:41:05.750Z,101994.90
2023-05-07T11:43:33.435Z,101995.58
2023-05-07T11:46:10.675Z,101996.63
2023-05-07T11:48:39.206Z,101994.20
2023-05-07T11:51:07.110Z,101992.77
2023-05-07T11:53:39.051Z,101991.08
2023-05-07T11:56:10.329Z,101986.09
2023-05-07T11:58:37.835Z,101987.54
2023-05-07T12:01:05.107Z,101988.85
2023-05-07T12:03:35.856Z,101986.52
2023-05-07T12:06:03.694Z,101988.99
2023-05-07T12:08:31.457Z,101985.89
2023-05-07T12:10:58.804Z,101985.16
2023-05-07T12:13:27.314Z,101983.69
2023-05-07T12:15:55.587Z,101987.61
2023-05-07T12:18:23.021Z,101980.77
2023-05-07T12:20:50.084Z,101978.55
2023-05-07T12:23:17.417Z,101977.35
2023-05-07T12:25:47.374Z,101978.64
2023-05-07T12:28:17.786Z,101973.19
2023-05-07T12:30:46.296Z,101971.77
2023-05-07T12:33:17.100Z,101965.58
2023-05-07T12:35:44.644Z,101959.84
2023-05-07T12:38:13.917Z,101953.89
2023-05-07T12:40:40.800Z,101953.14
2023-05-07T12:43:08.243Z,101952.14
2023-05-07T12:45:39.514Z,101949.70
2023-05-07T12:48:06.769Z,101943.48
2023-05-07T12:50:35.014Z,101942.98
2023-05-07T12:53:06.362Z,101940.27
2023-05-07T12:55:34.834Z,101939.64
2023-05-07T12:58:03.330Z,101938.34
2023-05-07T13:00:37.840Z,101942.16
2023-05-07T13:03:05.253Z,101937.58
2023-05-07T13:05:32.981Z,101934.75
2023-05-07T13:08:00.195Z,101933.73
2023-05-07T13:10:27.667Z,101933.45
2023-05-07T13:12:54.875Z,101933.27
2023-05-07T13:15:22.390Z,101931.17
2023-05-07T13:17:49.393Z,101930.41
2023-05-07T13:20:16.698Z,101928.55
2023-05-07T13:22:43.823Z,101927.73
2023-05-07T13:25:11.113Z,101926.87
2023-05-07T13:27:38.841Z,101923.27
2023-05-07T13:30:07.318Z,101922.83
2023-05-07T13:32:34.406Z,101923.73
2023-05-07T13:35:02.141Z,101920.86
2023-05-07T13:37:29.289Z,101923.95
2023-05-07T13:39:56.426Z,101927.70
2023-05-07T13:42:23.674Z,101924.33
2023-05-07T13:44:51.039Z,101925.57
2023-05-07T13:47:18.089Z,101921.71
2023-05-07T13:49:45.329Z,101922.41
2023-05-07T13:52:12.377Z,101920.04
2023-05-07T13:54:39.433Z,101923.14
2023-05-07T13:57:06.573Z,101917.77
2023-05-07T13:59:34.340Z,101914.55
2023-05-07T14:02:01.592Z,101912.78
2023-05-07T14:04:29.353Z,101913.16
2023-05-07T14:10:21.137Z,101912.59
2023-05-07T14:12:48.289Z,101915.04
2023-05-07T14:15:16.121Z,101914.31
2023-05-07T14:17:43.950Z,101913.04
2023-05-07T14:20:13.395Z,101915.95
2023-05-07T14:22:40.740Z,101919.79
2023-05-07T14:25:08.542Z,101917.20
2023-05-07T14:27:35.954Z,101920.89
2023-05-07T14:30:03.263Z,101918.23
2023-05-07T14:32:30.573Z,101922.29
2023-05-07T14:34:57.709Z,101919.60
2023-05-07T14:37:25.380Z,101923.55
2023-05-07T14:39:52.829Z,101925.64
2023-05-07T14:42:19.874Z,101924.08
2023-05-07T14:44:49.491Z,101919.33
2023-05-07T14:47:18.305Z,101924.02
2023-05-07T14:49:46.860Z,101921.94
2023-05-07T14:52:14.329Z,101924.64
2023-05-07T14:54:41.375Z,101926.46
2023-05-07T14:57:10.877Z,101923.69
2023-05-07T14:59:39.215Z,101920.03
2023-05-07T15:02:09.304Z,101917.04
2023-05-07T15:04:37.432Z,101919.33
2023-05-07T15:07:04.477Z,101919.67
2023-05-07T15:09:31.530Z,101919.83
2023-05-07T15:11:58.480Z,101922.50
2023-05-07T15:14:25.624Z,101922.00
2023-05-07T15:16:52.773Z,101920.79
2023-05-07T15:19:19.814Z,101917.16
2023-05-07T15:21:46.866Z,101916.77
2023-05-07T15:24:14.114Z,101919.36
2023-05-07T15:26:41.496Z,101922.27
2023-05-07T15:29:11.319Z,101924.61
2023-05-07T15:31:40.398Z,101921.80
2023-05-07T15:34:07.736Z,101921.38
2023-05-07T15:36:34.775Z,101922.89
2023-05-07T15:39:03.956Z,101920.91
2023-05-07T15:41:31.535Z,101920.70
2023-05-07T15:43:58.781Z,101918.77
2023-05-07T15:46:26.517Z,101921.06
2023-05-07T15:48:54.231Z,101921.50
2023-05-07T15:51:22.991Z,101923.21
2023-05-07T15:53:50.638Z,101927.73
2023-05-07T15:56:17.709Z,101929.80
2023-05-07T15:58:44.752Z,101930.06
2023-05-07T16:01:11.937Z,101929.80
2023-05-07T16:03:40.668Z,101928.61
2023-05-07T16:06:08.149Z,101929.73
2023-05-07T16:08:35.227Z,101926.30
2023-05-07T16:11:02.254Z,101927.25
2023-05-07T16:13:29.344Z,101931.23
2023-05-07T16:16:00.159Z,101933.67
2023-05-07T16:18:27.408Z,101934.67
2023-05-07T16:20:54.776Z,101934.75
2023-05-07T16:23:21.803Z,101936.58
2023-05-07T16:25:49.685Z,101940.36
2023-05-07T16:28:16.816Z,101937.88
2023-05-07T16:30:44.154Z,101940.38
2023-05-07T16:33:11.213Z,101938.75
2023-05-07T16:35:38.189Z,101937.88
2023-05-07T16:38:10.267Z,101938.84
2023-05-07T16:40:40.607Z,101941.90
2023-05-07T16:43:07.777Z,101940.02
2023-05-07T16:45:34.756Z,101939.92
2023-05-07T16:48:03.453Z,101939.73
2023-05-07T16:50:30.542Z,101936.77
2023-05-07T16:52:57.509Z,101936.15
2023-05-07T16:55:24.875Z,101939.54
2023-05-07T16:57:51.990Z,101938.09
2023-05-07T17:00:19.386Z,101936.28
2023-05-07T17:02:47.174Z,101941.16
2023-05-07T17:05:14.738Z,101935.65
2023-05-07T17:07:42.087Z,101935.65
2023-05-07T17:10:09.547Z,101937.27
2023-05-07T17:12:37.799Z,101940.48
2023-05-07T17:15:05.350Z,101942.02
2023-05-07T17:17:33.036Z,101939.34
2023-05-07T17:20:00.355Z,101942.50
2023-05-07T17:22:27.623Z,101940.20
2023-05-07T17:24:54.786Z,101944.52
2023-05-07T17:27:21.925Z,101952.23
2023-05-07T17:29:48.861Z,101951.98
2023-05-07T17:32:16.101Z,101954.50
2023-05-07T17:34:43.061Z,101959.15
2023-05-07T17:37:10.102Z,101956.77
2023-05-07T17:39:37.240Z,101960.89
2023-05-07T17:42:04.395Z,101953.77
2023-05-07T17:44:31.419Z,101955.98
2023-05-07T17:46:58.388Z,101955.38
2023-05-07T17:49:25.422Z,101951.10
2023-05-07T17:51:55.181Z,101950.11
2023-05-07T17:54:24.466Z,101955.11
2023-05-07T17:56:51.636Z,101957.96
2023-05-07T17:59:18.605Z,101959.39
2023-05-07T18:01:45.649Z,101959.25
2023-05-07T18:04:12.852Z,101959.80
2023-05-07T18:06:41.821Z,101959.98
2023-05-07T18:09:08.864Z,101960.16
2023-05-07T18:11:37.387Z,101960.29
2023-05-07T18:14:04.434Z,101961.48
2023-05-07T18:16:31.622Z,101959.72
2023-05-07T18:18:58.590Z,101957.06
2023-05-07T18:21:25.600Z,101960.76
2023-05-07T18:23:52.567Z,101959.23
2023-05-07T18:26:19.530Z,101960.35
2023-05-07T18:28:46.653Z,101961.42
2023-05-07T18:31:13.708Z,101962.46
2023-05-07T18:33:40.771Z,101958.07
2023-05-07T18:36:07.808Z,101954.61
2023-05-07T18:38:34.781Z,101961.74
2023-05-07T18:41:04.893Z,101963.98
2023-05-07T18:43:32.400Z,101965.55
2023-05-07T18:45:59.413Z,101969.19
2023-05-07T18:48:26.470Z,101969.71
2023-05-07T18:50:53.421Z,101969.50
2023-05-07T18:53:20.470Z,101968.22
2023-05-07T18:55:53.561Z,101973.47
2023-05-07T18:58:20.752Z,101973.07
2023-05-07T19:00:48.405Z,101971.65
2023-05-07T19:03:16.054Z,101970.23
2023-05-07T19:05:44.115Z,101963.64
2023-05-07T19:08:11.176Z,101960.88
2023-05-07T19:10:40.856Z,101964.91
2023-05-07T19:13:07.941Z,101968.13
2023-05-07T19:15:34.995Z,101969.05
2023-05-07T19:18:02.051Z,101971.52
2023-05-07T19:20:29.409Z,101969.58
2023-05-07T19:22:56.476Z,101970.80
2023-05-07T19:25:23.565Z,101974.17
2023-05-07T19:27:51.373Z,101975.90
2023-05-07T19:30:18.885Z,101973.94
2023-05-07T19:32:46.150Z,101973.48
2023-05-07T19:35:13.538Z,101977.70
2023-05-07T19:37:40.744Z,101980.52
2023-05-07T19:40:09.528Z,101977.05
2023-05-07T19:42:36.573Z,101975.69
2023-05-07T19:45:04.722Z,101972.57
2023-05-07T19:47:31.784Z,101967.73
2023-05-07T19:49:58.759Z,101972.19
2023-05-07T19:52:26.538Z,101966.75
2023-05-07T19:54:53.511Z,101970.82
2023-05-07T19:57:20.489Z,101968.89
2023-05-07T19:59:47.440Z,101967.00
2023-05-07T20:02:15.455Z,101966.84
2023-05-07T20:04:42.509Z,101970.04
2023-05-07T20:07:09.467Z,101969.23
2023-05-07T20:09:36.462Z,101966.95
2023-05-07T20:12:03.603Z,101969.46
2023-05-07T20:14:30.611Z,101968.64
2023-05-07T20:16:57.582Z,101971.15
2023-05-07T20:19:25.160Z,101970.67
2023-05-07T20:21:53.011Z,101970.23
2023-05-07T20:24:20.022Z,101972.42
2023-05-07T20:26:47.002Z,101974.77
2023-05-07T20:29:13.949Z,101974.27
2023-05-07T20:31:41.182Z,101977.31
2023-05-07T20:34:08.334Z,101980.02
2023-05-07T20:36:36.136Z,101982.42
2023-05-07T20:39:04.352Z,101985.50
2023-05-07T20:41:31.405Z,101991.73
2023-05-07T20:43:58.642Z,101992.53
2023-05-07T20:46:27.491Z,101997.02
2023-05-07T20:48:54.928Z,101993.13
2023-05-07T20:51:21.876Z,101993.23
2023-05-07T20:53:48.913Z,101997.20
2023-05-07T20:56:16.154Z,101998.73
2023-05-07T20:58:43.098Z,101998.84
2023-05-07T21:01:10.145Z,102003.48
2023-05-07T21:03:37.140Z,102005.55
2023-05-07T21:06:04.480Z,102007.04
2023-05-07T21:08:31.482Z,102011.04
2023-05-07T21:10:58.439Z,102014.30
2023-05-07T21:13:25.511Z,102011.23
2023-05-07T21:15:53.209Z,102010.27
2023-05-07T21:18:20.212Z,102007.38
2023-05-07T21:20:47.173Z,102006.85
2023-05-07T21:23:14.120Z,102001.27
2023-05-07T21:25:41.689Z,101996.60
2023-05-07T21:28:09.450Z,101998.80
2023-05-07T21:30:37.156Z,102001.03
2023-05-07T21:33:06.237Z,102001.69
2023-05-07T21:35:38.247Z,101998.95
2023-05-07T21:38:05.274Z,101999.15
2023-05-07T21:40:32.275Z,101997.04
2023-05-07T21:43:00.721Z,102000.05
2023-05-07T21:45:27.740Z,102010.60
2023-05-07T21:47:54.875Z,102006.59
2023-05-07T21:50:22.270Z,102001.24
2023-05-07T21:52:49.494Z,102000.86
2023-05-07T21:55:17.793Z,101996.37
2023-05-07T21:57:53.757Z,101995.45
2023-05-07T22:00:29.605Z,101997.76
2023-05-07T22:02:56.639Z,102001.67
2023-05-07T22:05:23.768Z,102006.70
2023-05-07T22:07:50.985Z,102007.10
2023-05-07T22:10:22.853Z,102008.89
2023-05-07T22:12:50.418Z,102009.34
2023-05-07T22:15:17.696Z,102004.95
2023-05-07T22:17:44.758Z,102006.69
2023-05-07T22:20:12.209Z,102009.98
2023-05-07T22:22:51.718Z,102018.48
2023-05-07T22:25:20.217Z,102020.46
2023-05-07T22:27:47.174Z,102023.00
2023-05-07T22:30:14.496Z,102023.78
2023-05-07T22:32:45.120Z,102024.40
2023-05-07T22:35:12.246Z,102024.86
2023-05-07T22:37:39.447Z,102018.58
2023-05-07T22:40:07.097Z,102017.92
2023-05-07T22:42:34.076Z,102013.73
2023-05-07T22:45:01.054Z,102015.02
2023-05-07T22:47:31.399Z,102013.10
2023-05-07T22:49:58.494Z,102014.98
2023-05-07T22:52:25.476Z,102018.52
2023-05-07T22:54:52.452Z,102014.65
2023-05-07T22:57:19.441Z,102006.60
2023-05-07T22:59:46.451Z,102000.65
2023-05-07T23:02:13.491Z,101999.92
2023-05-07T23:04:40.540Z,101996.95
2023-05-07T23:07:07.477Z,101990.11
2023-05-07T23:09:34.522Z,101990.89
2023-05-07T23:12:01.479Z,101985.69
2023-05-07T23:14:28.414Z,101986.45
2023-05-07T23:16:55.486Z,101986.84
2023-05-07T23:19:22.519Z,101981.23
2023-05-07T23:21:49.534Z,101984.95
2023-05-07T23:24:16.552Z,101988.85
2023-05-07T23:26:43.541Z,101984.45
2023-05-07T23:29:10.504Z,101990.63
2023-05-07T23:31:37.710Z,101990.30
2023-05-07T23:34:04.740Z,101993.53
2023-05-07T23:36:32.770Z,101994.40
2023-05-07T23:38:59.725Z,101999.49
2023-05-07T23:41:26.769Z,101998.20
2023-05-07T23:43:53.828Z,101995.80
2023-05-07T23:46:20.898Z,101992.48
2023-05-07T23:48:47.870Z,101989.38
2023-05-07T23:51:14.810Z,101984.05
2023-05-07T23:53:42.026Z,101978.71
2023-05-07T23:56:09.020Z,101979.41
2023-05-07T23:58:35.958Z,101982.95
